createdAt,value
2019-05-22T00:07:49.370Z,56.90
2019-05-22T00:17:54.858Z,57.10
2019-05-22T00:28:02.147Z,57.10
2019-05-22T00:38:09.555Z,57.20
2019-05-22T00:48:16.165Z,57.60
2019-05-22T00:58:29.930Z,57.80
2019-05-22T01:08:37.894Z,58.20
2019-05-22T01:18:45.232Z,58.70
2019-05-22T01:28:50.963Z,59.00
2019-05-22T01:39:03.151Z,58.90
2019-05-22T01:49:12.373Z,59.10
2019-05-22T01:59:19.503Z,59.20
2019-05-22T02:09:33.340Z,59.20
2019-05-22T02:19:39.161Z,59.20
2019-05-22T02:29:47.334Z,59.30
2019-05-22T02:39:53.809Z,59.40
2019-05-22T02:50:00.135Z,59.40
2019-05-22T03:00:06.591Z,59.50
2019-05-22T03:10:15.473Z,59.50
2019-05-22T03:20:24.019Z,59.50
2019-05-22T03:30:34.331Z,59.60
2019-05-22T03:40:40.617Z,59.50
2019-05-22T03:50:46.651Z,59.60
2019-05-22T04:00:53.026Z,59.60
2019-05-22T04:11:02.938Z,59.60
2019-05-22T04:21:09.319Z,59.60
2019-05-22T04:31:14.843Z,59.70
2019-05-22T04:41:21.917Z,59.70
2019-05-22T04:51:32.389Z,59.80
2019-05-22T05:01:37.791Z,59.80
2019-05-22T05:11:43.575Z,59.90
2019-05-22T05:21:49.278Z,59.80
2019-05-22T05:31:55.087Z,59.80
2019-05-22T05:42:00.715Z,59.80
2019-05-22T05:52:08.207Z,59.80
2019-05-22T06:02:13.906Z,60.60
2019-05-22T06:12:19.602Z,59.80
2019-05-22T06:22:25.338Z,59.80
2019-05-22T06:33:24.196Z,59.80
2019-05-22T06:44:41.298Z,59.70
2019-05-22T06:54:47.590Z,59.50
2019-05-22T07:04:53.080Z,59.20
2019-05-22T07:15:22.969Z,59.20
2019-05-22T07:25:29.673Z,59.30
2019-05-22T07:35:56.226Z,59.30
2019-05-22T07:45:42.864Z,59.20
2019-05-22T07:55:51.077Z,58.80
2019-05-22T08:05:58.633Z,58.70
2019-05-22T08:16:04.389Z,58.70
2019-05-22T08:26:11.482Z,58.70
2019-05-22T08:36:17.144Z,58.40
2019-05-22T08:46:22.973Z,58.40
2019-05-22T08:56:32.395Z,58.10
2019-05-22T09:06:38.376Z,57.80
2019-05-22T09:16:44.418Z,57.60
2019-05-22T09:26:50.375Z,57.70
2019-05-22T09:36:55.845Z,57.90
2019-05-22T09:47:01.184Z,58.00
2019-05-22T09:57:07.544Z,57.90
2019-05-22T10:07:13.027Z,57.90
2019-05-22T10:17:19.389Z,57.90
2019-05-22T10:27:26.535Z,57.60
2019-05-22T10:37:32.018Z,57.40
2019-05-22T10:47:37.449Z,57.00
2019-05-22T10:57:44.539Z,56.90
2019-05-22T11:07:51.479Z,56.30
2019-05-22T11:17:57.439Z,56.20
2019-05-22T11:28:03.434Z,55.80
2019-05-22T11:38:09.509Z,55.90
2019-05-22T11:48:14.907Z,55.70
2019-05-22T11:58:20.633Z,55.70
2019-05-22T12:08:26.141Z,55.60
2019-05-22T12:18:31.731Z,55.40
2019-05-22T12:28:37.700Z,55.70
2019-05-22T12:38:43.251Z,55.80
2019-05-22T12:48:48.768Z,55.50
2019-05-22T12:58:55.621Z,55.00
2019-05-22T13:09:01.580Z,54.60
2019-05-22T13:19:07.341Z,54.60
2019-05-22T13:29:14.598Z,54.70
2019-05-22T13:39:21.018Z,54.90
2019-05-22T13:49:28.806Z,55.10
2019-05-22T13:59:34.617Z,55.40
2019-05-22T14:09:40.723Z,55.60
2019-05-22T14:19:46.280Z,55.70
2019-05-22T14:29:52.146Z,56.10
2019-05-22T14:39:58.120Z,56.40
2019-05-22T14:50:03.546Z,56.30
2019-05-22T15:00:09.669Z,56.50
2019-05-22T15:10:16.930Z,56.50
2019-05-22T15:20:27.429Z,56.40
2019-05-22T15:30:33.213Z,56.30
2019-05-22T15:40:38.473Z,56.20
2019-05-22T15:50:44.703Z,56.40
2019-05-22T16:00:50.839Z,56.40
2019-05-22T16:11:00.262Z,56.10
2019-05-22T16:21:07.779Z,56.00
2019-05-22T16:31:13.436Z,56.00
2019-05-22T16:41:19.776Z,56.00
2019-05-22T16:51:27.278Z,56.00
2019-05-22T17:01:54.095Z,55.90
2019-05-22T17:11:42.038Z,55.90
2019-05-22T17:21:48.706Z,55.90
2019-05-22T17:31:54.798Z,55.90
2019-05-22T17:42:00.266Z,55.90
2019-05-22T17:52:06.674Z,55.90
2019-05-22T18:02:13.764Z,56.60
2019-05-22T18:12:20.549Z,55.80
2019-05-22T18:22:26.173Z,55.80
2019-05-22T18:32:35.032Z,55.70
2019-05-22T18:42:40.341Z,55.70
2019-05-22T18:52:49.098Z,55.70
2019-05-22T19:02:54.519Z,55.60
2019-05-22T19:13:00.017Z,55.70
2019-05-22T19:23:05.831Z,55.80
2019-05-22T19:33:14.840Z,56.00
2019-05-22T19:43:19.210Z,55.90
2019-05-22T19:53:24.992Z,55.90
2019-05-22T20:03:30.514Z,56.00
2019-05-22T20:13:37.100Z,56.20
2019-05-22T20:23:43.257Z,56.20
2019-05-22T20:33:48.800Z,56.50
2019-05-22T20:43:54.131Z,56.40
2019-05-22T20:53:59.955Z,56.50
2019-05-22T21:04:08.723Z,56.60
2019-05-22T21:14:14.614Z,56.70
2019-05-22T21:24:20.597Z,56.70
2019-05-22T21:34:26.831Z,56.70
2019-05-22T21:44:32.673Z,56.80
2019-05-22T21:54:38.266Z,56.80
2019-05-22T22:04:45.451Z,56.70
2019-05-22T22:14:51.193Z,56.70
2019-05-22T22:24:57.070Z,56.80
2019-05-22T22:35:04.209Z,57.00
2019-05-22T22:45:18.600Z,57.40
2019-05-22T22:55:26.915Z,57.60
2019-05-22T23:05:35.525Z,57.70
2019-05-22T23:15:41.581Z,57.80
2019-05-22T23:25:47.181Z,57.90
2019-05-22T23:35:53.401Z,58.00
2019-05-22T23:45:59.030Z,58.20
2019-05-22T23:56:06.820Z,58.40
